Página principal
METAR-TAF:

METAR-TAF

Aeroportos :

Ciudad Real, Espanha

latitude: 38-51-17N, longitude: 3-58-08W, altura: 636 m

METAR: em falta

Hora: 17:19 (15:19 UTC)

Previsão

O boletim foi feito há 1 hora e 19 minutos, às 14:00 UTC
Previsão válida de 11 às 15 UTC a 12 às 15 UTC
Vento 5 kt com direcção variável
Visibilidade 10 km ou mais
sem nuvens abaixo de 1500 metros e sem cumulonimbus
Probabilidade 40% :
Temporariamente
de 11 às 15 UTC a 12 às 04 UTC
Vento 8 kt de su-sudoeste
Tornando-se
de 12 às 11 UTC a 12 às 14 UTC
Vento 10 kt de oes-sudoeste

TAF: LERL 111400Z 1115/1215 VRB05KT CAVOK TX36/1116Z TN21/1205Z PROB40 TEMPO 1115/1204 20008KT BECMG 1211/1214 25010KT

Observações e previsões do tempo de mais de 4000 aeroportos (mensagens METAR e TAF).

As estações disponíveis são os pontos amarelos e vermelhos sobre o mapa.

Mova o rato sobre o mapa para ver o nome da estação.

Depois clique no ponto para visualizar as observações e previsões meteorológicas.

Para alterar o mapa : clique nos botões verdes com uma cruz preta para aumentar o zoom; no botão verde com uma pitada de zoom; ou nas setas verdes para mapas adjacentes.


METAR-TAF: